createdAt,value
2023-08-31T00:00:23.188Z,32.91
2023-08-31T00:01:23.227Z,32.81
2023-08-31T00:02:23.212Z,32.91
2023-08-31T00:03:23.318Z,32.81
2023-08-31T00:04:23.276Z,32.91
2023-08-31T00:05:23.194Z,32.81
2023-08-31T00:06:23.186Z,32.42
2023-08-31T00:07:23.192Z,32.62
2023-08-31T00:08:23.186Z,32.91
2023-08-31T00:09:23.203Z,32.81
2023-08-31T00:10:23.186Z,32.81
2023-08-31T00:11:23.193Z,32.71
2023-08-31T00:12:23.186Z,32.81
2023-08-31T00:13:23.194Z,32.81
2023-08-31T00:14:23.191Z,32.71
2023-08-31T00:15:23.200Z,32.71
2023-08-31T00:16:23.200Z,32.81
2023-08-31T00:17:23.226Z,32.81
2023-08-31T00:18:23.213Z,32.71
2023-08-31T00:19:23.193Z,32.71
2023-08-31T00:20:23.193Z,32.81
2023-08-31T00:21:23.208Z,32.91
2023-08-31T00:22:23.186Z,32.91
2023-08-31T00:23:23.193Z,32.81
2023-08-31T00:24:23.226Z,32.81
2023-08-31T00:25:23.198Z,32.71
2023-08-31T00:26:23.186Z,32.71
2023-08-31T00:27:23.193Z,32.71
2023-08-31T00:28:23.185Z,32.71
2023-08-31T00:29:23.214Z,32.91
2023-08-31T00:30:23.197Z,32.81
2023-08-31T00:31:23.245Z,32.71
2023-08-31T00:32:23.241Z,32.71
2023-08-31T00:33:23.206Z,32.71
2023-08-31T00:34:23.227Z,32.91
2023-08-31T00:35:23.192Z,32.91
2023-08-31T00:36:23.183Z,32.71
2023-08-31T00:37:23.192Z,32.71
2023-08-31T00:38:23.185Z,32.91
2023-08-31T00:39:23.190Z,32.81
2023-08-31T00:40:23.185Z,32.81
2023-08-31T00:41:23.189Z,32.81
2023-08-31T00:42:23.194Z,32.91
2023-08-31T00:43:23.188Z,32.71
2023-08-31T00:44:23.179Z,32.91
2023-08-31T00:45:23.195Z,32.71
2023-08-31T00:46:23.192Z,32.81
2023-08-31T00:47:23.218Z,32.81
2023-08-31T00:48:23.186Z,32.71
2023-08-31T00:49:23.190Z,32.42
2023-08-31T00:50:23.206Z,32.52
2023-08-31T00:51:23.187Z,32.81
2023-08-31T00:52:23.186Z,32.81
2023-08-31T00:53:23.192Z,32.71
2023-08-31T00:54:23.183Z,32.71
2023-08-31T00:55:23.193Z,32.71
2023-08-31T00:56:23.191Z,32.62
2023-08-31T00:57:23.189Z,32.52
2023-08-31T00:58:23.183Z,32.71
2023-08-31T00:59:23.187Z,32.62
2023-08-31T01:00:23.189Z,32.52
2023-08-31T01:01:23.255Z,32.81
2023-08-31T01:02:23.440Z,32.52
2023-08-31T01:03:23.310Z,32.71
2023-08-31T01:04:23.225Z,32.81
2023-08-31T01:05:23.206Z,32.81
2023-08-31T01:06:23.205Z,32.62
2023-08-31T01:07:23.202Z,32.71
2023-08-31T01:08:23.179Z,32.52
2023-08-31T01:09:23.185Z,32.71
2023-08-31T01:10:23.181Z,32.71
2023-08-31T01:11:23.190Z,32.62
2023-08-31T01:12:23.177Z,32.71
2023-08-31T01:13:23.196Z,32.71
2023-08-31T01:14:23.177Z,32.52
2023-08-31T01:15:23.187Z,32.71
2023-08-31T01:16:23.198Z,32.71
2023-08-31T01:17:23.187Z,32.62
2023-08-31T01:18:23.184Z,32.42
2023-08-31T01:19:23.192Z,32.42
2023-08-31T01:20:23.211Z,32.62
2023-08-31T01:21:23.184Z,32.81
2023-08-31T01:22:23.199Z,32.62
2023-08-31T01:23:23.188Z,32.42
2023-08-31T01:24:23.182Z,32.71
2023-08-31T01:25:23.186Z,32.62
2023-08-31T01:26:23.175Z,32.71
2023-08-31T01:27:23.185Z,32.62
2023-08-31T01:28:23.183Z,32.42
2023-08-31T01:29:23.190Z,32.42
2023-08-31T01:30:23.177Z,32.62
2023-08-31T01:31:23.198Z,32.81
2023-08-31T01:32:23.179Z,32.81
2023-08-31T01:33:23.185Z,32.52
2023-08-31T01:34:23.177Z,32.71
2023-08-31T01:35:23.184Z,32.71
2023-08-31T01:36:23.180Z,32.71
2023-08-31T01:37:23.188Z,32.71
2023-08-31T01:38:23.213Z,32.62
2023-08-31T01:39:23.182Z,32.62
2023-08-31T01:40:23.175Z,32.62
2023-08-31T01:41:23.183Z,32.62
2023-08-31T01:42:23.184Z,32.71
2023-08-31T01:43:23.184Z,32.81
2023-08-31T01:44:23.176Z,32.81
2023-08-31T01:45:23.200Z,32.81
2023-08-31T01:46:23.228Z,32.81
2023-08-31T01:47:23.181Z,32.62
2023-08-31T01:48:23.175Z,32.62
2023-08-31T01:49:23.186Z,32.62
2023-08-31T01:50:23.177Z,32.81
2023-08-31T01:51:23.184Z,32.81
2023-08-31T01:52:23.175Z,32.81
2023-08-31T01:53:23.184Z,32.62
2023-08-31T01:54:23.197Z,32.62
2023-08-31T01:55:23.180Z,32.62
2023-08-31T01:56:23.175Z,32.81
2023-08-31T01:57:23.182Z,32.62
2023-08-31T01:58:23.181Z,32.62
2023-08-31T01:59:23.187Z,32.62
2023-08-31T02:00:23.193Z,32.62
2023-08-31T02:01:23.198Z,32.71
2023-08-31T02:02:23.184Z,32.62
2023-08-31T02:03:23.262Z,32.71
2023-08-31T02:04:23.173Z,32.71
2023-08-31T02:05:23.180Z,32.71
2023-08-31T02:06:23.174Z,32.62
2023-08-31T02:07:23.180Z,32.81
2023-08-31T02:08:23.172Z,32.71
2023-08-31T02:09:23.180Z,32.71
2023-08-31T02:10:23.192Z,32.71
2023-08-31T02:11:23.179Z,32.62
2023-08-31T02:12:23.172Z,32.62
2023-08-31T02:13:23.180Z,32.42
2023-08-31T02:14:23.172Z,32.91
2023-08-31T02:15:23.191Z,32.52
2023-08-31T02:16:23.174Z,32.81
2023-08-31T02:17:23.201Z,32.52
2023-08-31T02:18:23.174Z,32.62
2023-08-31T02:19:23.177Z,32.52
2023-08-31T02:20:23.172Z,32.52
2023-08-31T02:21:23.177Z,32.81
2023-08-31T02:22:23.180Z,32.71
2023-08-31T02:23:23.182Z,32.81
2023-08-31T02:24:23.169Z,32.71
2023-08-31T02:25:23.182Z,32.91
2023-08-31T02:26:23.190Z,32.91
2023-08-31T02:27:23.176Z,32.81
2023-08-31T02:28:23.170Z,32.52
2023-08-31T02:29:23.174Z,32.81
2023-08-31T02:30:23.168Z,32.81
2023-08-31T02:31:23.216Z,33.01
2023-08-31T02:32:23.168Z,32.71
2023-08-31T02:33:23.180Z,32.42
2023-08-31T02:34:23.169Z,32.42
2023-08-31T02:35:23.174Z,32.62
2023-08-31T02:36:23.169Z,32.42
2023-08-31T02:37:23.175Z,32.52
2023-08-31T02:38:23.167Z,32.52
2023-08-31T02:39:23.172Z,32.62
2023-08-31T02:40:23.172Z,32.52
2023-08-31T02:41:23.178Z,32.62
2023-08-31T02:42:23.188Z,32.52
2023-08-31T02:43:23.176Z,32.62
2023-08-31T02:44:23.164Z,32.62
2023-08-31T02:45:23.183Z,32.71
2023-08-31T02:46:23.190Z,32.81
2023-08-31T02:47:23.199Z,32.52
2023-08-31T02:48:23.288Z,32.81
2023-08-31T02:49:23.174Z,32.89
2023-08-31T02:50:23.168Z,32.89
2023-08-31T02:51:23.171Z,32.79
2023-08-31T02:52:23.168Z,32.70
2023-08-31T02:53:23.184Z,32.70
2023-08-31T02:54:23.163Z,32.41
2023-08-31T02:55:23.171Z,32.70
2023-08-31T02:56:23.162Z,32.60
2023-08-31T02:57:23.168Z,32.50
2023-08-31T02:58:23.187Z,32.60
2023-08-31T02:59:23.168Z,32.70
2023-08-31T03:00:23.200Z,32.70
2023-08-31T03:01:23.172Z,32.70
2023-08-31T03:02:23.244Z,32.79
2023-08-31T03:03:23.167Z,32.89
2023-08-31T03:04:23.161Z,32.89
2023-08-31T03:05:23.169Z,33.09
2023-08-31T03:06:23.173Z,32.99
2023-08-31T03:07:23.174Z,32.99
2023-08-31T03:08:23.160Z,33.09
2023-08-31T03:09:23.169Z,32.89
2023-08-31T03:10:23.157Z,32.99
2023-08-31T03:11:23.168Z,32.99
2023-08-31T03:12:23.157Z,32.99
2023-08-31T03:13:23.172Z,32.99
2023-08-31T03:14:23.178Z,33.09
2023-08-31T03:15:23.164Z,33.09
2023-08-31T03:16:23.210Z,32.99
2023-08-31T03:17:23.186Z,32.99
2023-08-31T03:18:23.161Z,33.18
2023-08-31T03:19:23.178Z,33.28
2023-08-31T03:20:23.157Z,33.18
2023-08-31T03:21:23.167Z,33.18
2023-08-31T03:22:23.155Z,33.09
2023-08-31T03:23:23.161Z,32.99
2023-08-31T03:24:23.154Z,32.79
2023-08-31T03:25:23.183Z,33.18
2023-08-31T03:26:23.155Z,33.18
2023-08-31T03:27:23.161Z,33.18
2023-08-31T03:28:23.156Z,33.18
2023-08-31T03:29:23.166Z,33.28
2023-08-31T03:30:23.293Z,33.18
2023-08-31T03:31:23.162Z,33.18
2023-08-31T03:32:23.160Z,33.38
2023-08-31T03:33:23.156Z,32.99
2023-08-31T03:34:23.161Z,33.18
2023-08-31T03:35:23.153Z,32.70
2023-08-31T03:36:23.157Z,33.28
2023-08-31T03:37:23.161Z,33.28
2023-08-31T03:38:23.169Z,33.28
2023-08-31T03:39:23.153Z,33.07
2023-08-31T03:40:23.155Z,33.09
2023-08-31T03:41:23.153Z,33.07
2023-08-31T03:42:23.156Z,33.07
2023-08-31T03:43:23.150Z,32.97
2023-08-31T03:44:23.160Z,33.56
2023-08-31T03:45:23.172Z,33.57
2023-08-31T03:46:23.227Z,33.17
2023-08-31T03:47:23.194Z,33.47
2023-08-31T03:48:23.151Z,33.67
2023-08-31T03:49:23.149Z,33.09
2023-08-31T03:50:23.158Z,32.89
2023-08-31T03:51:23.150Z,33.07
2023-08-31T03:52:23.150Z,33.18
2023-08-31T03:53:23.144Z,33.28
2023-08-31T03:54:23.150Z,33.18
2023-08-31T03:55:23.143Z,33.38
2023-08-31T03:56:23.149Z,32.99
2023-08-31T03:57:23.141Z,33.18
2023-08-31T03:58:23.153Z,33.18
2023-08-31T03:59:23.143Z,33.18
2023-08-31T04:00:23.158Z,33.28
2023-08-31T04:01:23.186Z,33.18
2023-08-31T04:02:23.206Z,33.28
2023-08-31T04:03:23.372Z,33.18
2023-08-31T04:04:23.145Z,33.28
2023-08-31T04:05:23.138Z,33.18
2023-08-31T04:06:23.146Z,33.18
2023-08-31T04:07:23.136Z,33.09
2023-08-31T04:08:23.156Z,33.09
2023-08-31T04:09:23.146Z,33.28
2023-08-31T04:10:23.142Z,33.28
2023-08-31T04:11:23.145Z,32.79
2023-08-31T04:12:23.142Z,33.09
2023-08-31T04:13:23.137Z,33.09
2023-08-31T04:14:23.139Z,33.09
2023-08-31T04:15:23.138Z,33.18
2023-08-31T04:16:23.201Z,33.18
2023-08-31T04:17:23.133Z,33.28
2023-08-31T04:18:23.181Z,33.18
2023-08-31T04:19:23.130Z,33.18
2023-08-31T04:20:23.139Z,33.28
2023-08-31T04:21:23.133Z,33.28
2023-08-31T04:22:23.138Z,33.17
2023-08-31T04:23:23.129Z,33.28
2023-08-31T04:24:23.136Z,33.26
2023-08-31T04:25:23.131Z,33.07
2023-08-31T04:26:23.137Z,33.28
2023-08-31T04:27:23.128Z,33.26
2023-08-31T04:28:23.133Z,33.26
2023-08-31T04:29:23.129Z,32.99
2023-08-31T04:30:23.179Z,32.99
2023-08-31T04:31:23.142Z,33.28
2023-08-31T04:32:23.135Z,33.26
2023-08-31T04:33:23.125Z,33.26
2023-08-31T04:34:23.155Z,33.28
2023-08-31T04:35:23.141Z,33.18
2023-08-31T04:36:23.150Z,33.07
2023-08-31T04:37:23.127Z,33.18
2023-08-31T04:38:23.139Z,33.09
2023-08-31T04:39:23.123Z,33.07
2023-08-31T04:40:23.136Z,32.78
2023-08-31T04:41:23.126Z,32.99
2023-08-31T04:42:23.133Z,33.18
2023-08-31T04:43:23.122Z,33.26
2023-08-31T04:44:23.133Z,33.17
2023-08-31T04:45:23.154Z,33.26
2023-08-31T04:46:23.131Z,33.26
2023-08-31T04:47:23.153Z,33.28
2023-08-31T04:48:23.128Z,33.26
2023-08-31T04:49:23.122Z,33.17
2023-08-31T04:50:23.156Z,33.26
2023-08-31T04:51:23.120Z,32.87
2023-08-31T04:52:23.128Z,33.07
2023-08-31T04:53:23.122Z,33.07
2023-08-31T04:54:23.123Z,33.17
2023-08-31T04:55:23.117Z,32.97
2023-08-31T04:56:23.121Z,33.07
2023-08-31T04:57:23.118Z,33.18
2023-08-31T04:58:23.129Z,33.17
2023-08-31T04:59:23.115Z,33.18
2023-08-31T05:00:23.122Z,33.28
2023-08-31T05:01:23.160Z,33.17
2023-08-31T05:02:23.133Z,33.17
2023-08-31T05:03:23.126Z,33.26
2023-08-31T05:04:23.135Z,33.17
2023-08-31T05:05:23.193Z,33.17
2023-08-31T05:06:23.141Z,33.17
2023-08-31T05:07:23.118Z,33.36
2023-08-31T05:08:23.117Z,33.26
2023-08-31T05:09:23.110Z,33.26
2023-08-31T05:10:23.128Z,33.07
2023-08-31T05:11:23.113Z,33.26
2023-08-31T05:12:23.121Z,33.36
2023-08-31T05:13:23.110Z,33.56
2023-08-31T05:14:23.116Z,33.36
2023-08-31T05:15:23.110Z,33.36
2023-08-31T05:16:23.138Z,33.36
2023-08-31T05:17:23.129Z,33.36
2023-08-31T05:18:23.112Z,33.36
2023-08-31T05:19:24.822Z,33.26
2023-08-31T05:20:23.115Z,33.26
2023-08-31T05:21:23.105Z,33.17
2023-08-31T05:22:23.134Z,33.17
2023-08-31T05:23:23.100Z,33.46
2023-08-31T05:24:23.117Z,33.57
2023-08-31T05:25:23.101Z,33.38
2023-08-31T05:26:23.108Z,33.65
2023-08-31T05:27:23.101Z,33.56
2023-08-31T05:28:23.156Z,33.47
2023-08-31T05:29:23.100Z,33.38
2023-08-31T05:30:23.104Z,33.36
2023-08-31T05:31:23.123Z,35.90
2023-08-31T05:32:23.105Z,36.85
2023-08-31T05:33:23.108Z,34.83
2023-08-31T05:34:23.112Z,33.75
2023-08-31T05:35:23.099Z,33.75
2023-08-31T05:36:23.106Z,33.75
2023-08-31T05:37:23.095Z,33.76
2023-08-31T05:38:23.126Z,34.06
2023-08-31T05:39:23.102Z,33.86
2023-08-31T05:40:23.103Z,33.75
2023-08-31T05:41:23.106Z,33.75
2023-08-31T05:42:23.133Z,33.84
2023-08-31T05:43:23.096Z,33.84
2023-08-31T05:44:23.098Z,33.84
2023-08-31T05:45:23.090Z,33.84
2023-08-31T05:46:23.165Z,34.23
2023-08-31T05:47:23.095Z,34.23
2023-08-31T05:48:23.155Z,34.23
2023-08-31T05:49:23.088Z,34.23
2023-08-31T05:50:23.098Z,34.33
2023-08-31T05:51:23.087Z,34.23
2023-08-31T05:52:23.100Z,34.23
2023-08-31T05:53:23.086Z,34.14
2023-08-31T05:54:23.126Z,34.33
2023-08-31T05:55:23.089Z,34.33
2023-08-31T05:56:23.095Z,34.14
2023-08-31T05:57:23.085Z,34.33
2023-08-31T05:58:23.095Z,34.23
2023-08-31T05:59:23.082Z,34.23
2023-08-31T06:00:23.089Z,34.14
2023-08-31T06:01:23.094Z,34.23
2023-08-31T06:02:23.097Z,34.14
2023-08-31T06:03:23.081Z,34.04
2023-08-31T06:04:23.171Z,33.75
2023-08-31T06:05:23.083Z,34.04
2023-08-31T06:06:23.090Z,34.04
2023-08-31T06:07:23.098Z,34.23
2023-08-31T06:08:23.087Z,34.04
2023-08-31T06:09:23.095Z,33.94
2023-08-31T06:10:23.111Z,33.94
2023-08-31T06:11:23.076Z,34.04
2023-08-31T06:12:23.083Z,33.94
2023-08-31T06:13:23.077Z,33.94
2023-08-31T06:14:23.122Z,34.23
2023-08-31T06:15:23.074Z,34.33
2023-08-31T06:16:23.105Z,33.94
2023-08-31T06:17:23.108Z,34.33
2023-08-31T06:18:23.084Z,34.53
2023-08-31T06:19:23.079Z,34.62
2023-08-31T06:20:23.080Z,35.01
2023-08-31T06:21:23.073Z,34.72
2023-08-31T06:22:23.079Z,34.43
2023-08-31T06:23:23.074Z,34.91
2023-08-31T06:24:23.083Z,34.91
2023-08-31T06:25:23.082Z,34.53
2023-08-31T06:26:23.117Z,34.43
2023-08-31T06:27:23.076Z,34.43
2023-08-31T06:28:23.078Z,34.43
2023-08-31T06:29:23.068Z,34.43
2023-08-31T06:30:23.101Z,34.43
2023-08-31T06:31:23.079Z,34.43
2023-08-31T06:32:23.075Z,34.33
2023-08-31T06:33:23.094Z,34.91
2023-08-31T06:34:23.080Z,34.43
2023-08-31T06:35:23.064Z,34.91
2023-08-31T06:36:23.068Z,34.81
2023-08-31T06:37:23.065Z,35.01
2023-08-31T06:38:23.070Z,34.33
2023-08-31T06:39:23.066Z,34.72
2023-08-31T06:40:23.075Z,34.53
2023-08-31T06:41:23.062Z,34.91
2023-08-31T06:42:24.130Z,34.81
2023-08-31T06:43:23.060Z,34.53
2023-08-31T06:44:23.064Z,34.81
2023-08-31T06:45:23.101Z,34.53
2023-08-31T06:46:25.253Z,34.53
2023-08-31T06:47:23.060Z,34.72
2023-08-31T06:48:23.070Z,34.81
2023-08-31T06:49:23.059Z,34.72
2023-08-31T06:50:23.066Z,34.62
2023-08-31T06:51:25.186Z,35.01
2023-08-31T06:52:31.336Z,35.11
2023-08-31T06:53:23.052Z,35.01
2023-08-31T06:54:23.065Z,34.91
2023-08-31T06:55:23.063Z,35.01
2023-08-31T06:56:23.062Z,34.91
2023-08-31T06:57:23.059Z,34.91
2023-08-31T06:58:23.084Z,35.01
2023-08-31T06:59:23.052Z,34.62
2023-08-31T07:00:23.058Z,34.91
2023-08-31T07:01:23.095Z,35.01
2023-08-31T07:02:23.178Z,34.72
2023-08-31T07:03:25.231Z,34.91
2023-08-31T07:04:23.059Z,34.91
2023-08-31T07:05:23.055Z,34.91
2023-08-31T07:06:23.061Z,34.91
2023-08-31T07:07:23.056Z,34.91
2023-08-31T07:08:23.057Z,35.11
2023-08-31T07:09:23.052Z,34.72
2023-08-31T07:10:23.060Z,35.21
2023-08-31T07:11:23.067Z,34.91
2023-08-31T07:12:23.055Z,35.11
2023-08-31T07:13:23.048Z,34.81
2023-08-31T07:14:23.093Z,34.91
2023-08-31T07:15:23.048Z,34.81
2023-08-31T07:16:23.100Z,34.81
2023-08-31T07:17:23.047Z,34.62
2023-08-31T07:18:23.085Z,34.72
2023-08-31T07:19:23.045Z,35.01
2023-08-31T07:20:23.068Z,35.01
2023-08-31T07:21:23.044Z,34.91
2023-08-31T07:22:23.059Z,34.81
2023-08-31T07:23:23.042Z,34.91
2023-08-31T07:24:23.078Z,34.91
2023-08-31T07:25:23.044Z,34.91
2023-08-31T07:26:23.054Z,34.81
2023-08-31T07:27:23.047Z,34.91
2023-08-31T07:28:23.049Z,34.81
2023-08-31T07:29:23.040Z,34.81
2023-08-31T07:30:23.105Z,34.91
2023-08-31T07:31:23.066Z,34.91
2023-08-31T07:32:23.047Z,34.91
2023-08-31T07:33:30.812Z,35.30
2023-08-31T07:34:23.043Z,35.11
2023-08-31T07:35:23.043Z,35.01
2023-08-31T07:36:23.042Z,35.11
2023-08-31T07:37:23.037Z,35.01
2023-08-31T07:38:23.055Z,35.11
2023-08-31T07:39:23.032Z,35.21
2023-08-31T07:40:23.055Z,35.21
2023-08-31T07:41:23.030Z,35.30
2023-08-31T07:42:23.040Z,35.30
2023-08-31T07:43:23.032Z,35.30
2023-08-31T07:44:23.048Z,35.11
2023-08-31T07:45:23.048Z,35.21
2023-08-31T07:46:23.194Z,34.91
2023-08-31T07:47:23.165Z,35.21
2023-08-31T07:48:23.046Z,35.11
2023-08-31T07:49:23.034Z,35.11
2023-08-31T07:50:23.034Z,35.11
2023-08-31T07:51:23.032Z,35.21
2023-08-31T07:52:23.025Z,35.69
2023-08-31T07:53:23.036Z,35.69
2023-08-31T07:54:23.027Z,35.11
2023-08-31T07:55:23.041Z,35.22
2023-08-31T07:56:23.029Z,35.21
2023-08-31T07:57:23.051Z,35.21
2023-08-31T07:58:23.030Z,35.30
2023-08-31T07:59:23.029Z,35.30
2023-08-31T08:00:23.025Z,35.21
2023-08-31T08:01:23.330Z,35.01
2023-08-31T08:02:23.045Z,35.21
2023-08-31T08:03:23.108Z,35.40
2023-08-31T08:04:23.021Z,35.40
2023-08-31T08:05:23.032Z,35.21
2023-08-31T08:06:23.017Z,35.21
2023-08-31T08:07:23.027Z,35.49
2023-08-31T08:08:23.018Z,35.78
2023-08-31T08:09:23.027Z,35.49
2023-08-31T08:10:23.023Z,35.40
2023-08-31T08:11:23.019Z,35.59
2023-08-31T08:12:23.017Z,35.49
2023-08-31T08:13:23.024Z,35.30
2023-08-31T08:14:23.015Z,35.59
2023-08-31T08:15:23.074Z,35.88
2023-08-31T08:16:23.064Z,35.40
2023-08-31T08:17:23.022Z,35.88
2023-08-31T08:18:23.161Z,35.98
2023-08-31T08:19:23.026Z,35.49
2023-08-31T08:20:23.018Z,36.08
2023-08-31T08:21:23.036Z,35.69
2023-08-31T08:22:23.021Z,35.78
2023-08-31T08:23:23.185Z,35.98
2023-08-31T08:24:23.015Z,35.88
2023-08-31T08:25:23.019Z,35.88
2023-08-31T08:26:23.009Z,35.78
2023-08-31T08:27:23.017Z,35.69
2023-08-31T08:28:23.021Z,35.78
2023-08-31T08:29:23.013Z,35.69
2023-08-31T08:30:23.012Z,35.78
2023-08-31T08:31:23.539Z,35.88
2023-08-31T08:32:23.041Z,35.69
2023-08-31T08:33:23.022Z,35.78
2023-08-31T08:34:23.026Z,35.88
2023-08-31T08:35:23.040Z,35.88
2023-08-31T08:36:23.004Z,35.49
2023-08-31T08:37:23.016Z,35.69
2023-08-31T08:38:23.003Z,35.49
2023-08-31T08:39:23.007Z,35.59
2023-08-31T08:40:23.008Z,35.69
2023-08-31T08:41:23.032Z,35.40
2023-08-31T08:42:23.000Z,35.78
2023-08-31T08:43:23.006Z,35.98
2023-08-31T08:44:23.002Z,35.59
2023-08-31T08:45:23.052Z,35.69
2023-08-31T08:46:23.018Z,35.78
2023-08-31T08:47:23.035Z,36.08
2023-08-31T08:48:22.994Z,35.86
2023-08-31T08:49:23.001Z,35.78
2023-08-31T08:50:23.016Z,35.78
2023-08-31T08:51:23.002Z,35.78
2023-08-31T08:52:22.995Z,36.08
2023-08-31T08:53:23.000Z,35.78
2023-08-31T08:54:22.993Z,35.98
2023-08-31T08:55:23.000Z,35.88
2023-08-31T08:56:22.993Z,35.88
2023-08-31T08:57:23.001Z,35.88
2023-08-31T08:58:22.988Z,35.88
2023-08-31T08:59:22.994Z,35.69
2023-08-31T09:00:22.986Z,35.69
2023-08-31T09:01:23.033Z,35.88
2023-08-31T09:02:23.012Z,35.98
2023-08-31T09:03:22.991Z,35.78
2023-08-31T09:04:22.985Z,35.98
2023-08-31T09:05:23.032Z,35.98
2023-08-31T09:06:23.010Z,35.40
2023-08-31T09:07:22.987Z,35.40
2023-08-31T09:08:22.982Z,35.59
2023-08-31T09:09:22.990Z,35.49
2023-08-31T09:10:22.982Z,35.98
2023-08-31T09:11:22.993Z,35.49
2023-08-31T09:12:22.985Z,36.08
2023-08-31T09:13:22.986Z,35.59
2023-08-31T09:14:22.982Z,35.88
2023-08-31T09:15:22.985Z,35.59
2023-08-31T09:16:23.060Z,35.59
2023-08-31T09:17:23.032Z,35.59
2023-08-31T09:18:23.034Z,35.49
2023-08-31T09:19:22.986Z,35.49
2023-08-31T09:20:22.978Z,35.69
2023-08-31T09:21:22.988Z,35.11
2023-08-31T09:22:22.998Z,35.69
2023-08-31T09:23:22.980Z,35.78
2023-08-31T09:24:22.974Z,35.69
2023-08-31T09:25:22.983Z,34.91
2023-08-31T09:26:22.970Z,35.49
2023-08-31T09:27:22.978Z,35.49
2023-08-31T09:28:22.979Z,35.49
2023-08-31T09:29:22.977Z,35.49
2023-08-31T09:30:22.975Z,35.49
2023-08-31T09:31:23.029Z,35.21
2023-08-31T09:32:22.968Z,35.21
2023-08-31T09:33:22.985Z,35.21
2023-08-31T09:34:22.975Z,35.01
2023-08-31T09:35:23.672Z,35.49
2023-08-31T09:36:23.003Z,35.01
2023-08-31T09:37:22.971Z,34.91
2023-08-31T09:38:22.995Z,35.30
2023-08-31T09:39:22.976Z,35.21
2023-08-31T09:40:22.972Z,35.30
2023-08-31T09:41:22.970Z,35.21
2023-08-31T09:42:22.964Z,35.30
2023-08-31T09:43:22.979Z,35.21
2023-08-31T09:44:22.987Z,35.21
2023-08-31T09:46:23.064Z,35.30
2023-08-31T09:47:22.968Z,35.21
2023-08-31T09:48:23.026Z,35.11
2023-08-31T09:49:22.989Z,35.01
2023-08-31T09:50:22.958Z,35.30
2023-08-31T09:51:22.966Z,35.01
2023-08-31T09:52:22.958Z,34.91
2023-08-31T09:53:22.971Z,35.30
2023-08-31T09:54:23.047Z,35.11
2023-08-31T09:55:22.962Z,35.21
2023-08-31T09:56:22.967Z,34.72
2023-08-31T09:57:36.071Z,34.91
2023-08-31T09:58:22.994Z,34.81
2023-08-31T09:59:22.962Z,34.91
2023-08-31T10:00:22.953Z,35.01
2023-08-31T10:01:29.531Z,34.81
2023-08-31T10:02:23.017Z,34.91
2023-08-31T10:03:23.033Z,34.62
2023-08-31T10:04:35.686Z,34.81
2023-08-31T10:05:23.440Z,35.01
2023-08-31T10:06:22.963Z,34.81
2023-08-31T10:07:22.955Z,34.81
2023-08-31T10:08:22.952Z,34.91
2023-08-31T10:09:22.972Z,35.11
2023-08-31T10:10:22.987Z,35.98
2023-08-31T10:11:22.953Z,34.81
2023-08-31T10:12:22.948Z,34.81
2023-08-31T10:13:22.959Z,34.72
2023-08-31T10:14:22.949Z,34.72
2023-08-31T10:15:22.953Z,34.81
2023-08-31T10:16:22.985Z,35.01
2023-08-31T10:17:22.955Z,34.81
2023-08-31T10:18:22.944Z,34.81
2023-08-31T10:19:22.952Z,34.33
2023-08-31T10:20:22.947Z,34.14
2023-08-31T10:21:23.028Z,33.94
2023-08-31T10:22:22.957Z,34.04
2023-08-31T10:23:22.950Z,33.94
2023-08-31T10:24:22.944Z,33.94
2023-08-31T10:25:22.955Z,34.23
2023-08-31T10:26:22.972Z,34.04
2023-08-31T10:27:22.952Z,34.23
2023-08-31T10:28:22.948Z,34.23
2023-08-31T10:29:22.947Z,34.14
2023-08-31T10:30:22.959Z,34.23
2023-08-31T10:31:22.994Z,34.14
2023-08-31T10:32:22.940Z,34.23
2023-08-31T10:33:22.946Z,34.23
2023-08-31T10:34:22.939Z,34.23
2023-08-31T10:35:22.946Z,34.43
2023-08-31T10:36:22.934Z,34.43
2023-08-31T10:37:22.944Z,34.33
2023-08-31T10:38:22.937Z,34.43
2023-08-31T10:39:22.945Z,34.33
2023-08-31T10:40:22.933Z,34.33
2023-08-31T10:41:22.945Z,34.33
2023-08-31T10:42:22.963Z,34.23
2023-08-31T10:43:25.302Z,34.33
2023-08-31T10:44:22.947Z,34.43
2023-08-31T10:45:22.936Z,34.43
2023-08-31T10:46:22.958Z,34.43
2023-08-31T10:47:22.978Z,34.23
2023-08-31T10:48:22.929Z,34.33
2023-08-31T10:49:22.933Z,34.14
2023-08-31T10:50:22.934Z,34.14
2023-08-31T10:51:22.936Z,34.91
2023-08-31T10:52:36.801Z,34.91
2023-08-31T10:53:22.932Z,34.91
2023-08-31T10:54:22.931Z,34.33
2023-08-31T10:55:22.936Z,34.33
2023-08-31T10:56:22.937Z,34.14
2023-08-31T10:57:22.933Z,34.14
2023-08-31T10:58:22.947Z,34.33
2023-08-31T10:59:22.932Z,34.23
2023-08-31T11:00:22.924Z,34.33
2023-08-31T11:01:22.973Z,34.23
2023-08-31T11:02:22.921Z,34.14
2023-08-31T11:03:23.137Z,34.23
2023-08-31T11:04:22.981Z,34.04
2023-08-31T11:05:24.374Z,34.04
2023-08-31T11:06:22.941Z,34.04
2023-08-31T11:07:22.926Z,34.23
2023-08-31T11:08:22.918Z,33.94
2023-08-31T11:09:22.926Z,34.04
2023-08-31T11:10:22.917Z,34.14
2023-08-31T11:11:22.923Z,34.23
2023-08-31T11:12:22.920Z,34.23
2023-08-31T11:13:22.925Z,34.23
2023-08-31T11:14:22.967Z,34.33
2023-08-31T11:15:22.924Z,34.23
2023-08-31T11:16:22.950Z,34.23
2023-08-31T11:17:22.920Z,34.23
2023-08-31T11:18:22.916Z,34.14
2023-08-31T11:19:22.917Z,34.04
2023-08-31T11:20:22.929Z,34.04
2023-08-31T11:21:22.919Z,34.04
2023-08-31T11:22:22.912Z,33.94
2023-08-31T11:23:23.049Z,33.94
2023-08-31T11:24:22.915Z,33.84
2023-08-31T11:25:22.931Z,34.14
2023-08-31T11:26:22.912Z,34.04
2023-08-31T11:27:22.916Z,33.94
2023-08-31T11:28:22.909Z,33.94
2023-08-31T11:29:22.916Z,33.94
2023-08-31T11:30:22.941Z,34.23
2023-08-31T11:31:22.970Z,34.23
2023-08-31T11:32:22.909Z,33.94
2023-08-31T11:33:22.960Z,34.33
2023-08-31T11:34:22.904Z,34.14
2023-08-31T11:35:22.924Z,33.94
2023-08-31T11:36:22.905Z,34.04
2023-08-31T11:37:22.917Z,33.84
2023-08-31T11:38:22.904Z,34.14
2023-08-31T11:39:22.914Z,34.04
2023-08-31T11:40:22.924Z,34.04
2023-08-31T11:41:22.910Z,34.23
2023-08-31T11:42:22.902Z,34.14
2023-08-31T11:43:22.910Z,34.04
2023-08-31T11:44:22.901Z,34.14
2023-08-31T11:45:22.906Z,34.14
2023-08-31T11:46:23.065Z,33.75
2023-08-31T11:47:22.908Z,34.04
2023-08-31T11:48:22.900Z,34.14
2023-08-31T11:49:22.909Z,34.04
2023-08-31T11:50:22.900Z,34.04
2023-08-31T11:51:22.907Z,34.23
2023-08-31T11:52:22.898Z,34.14
2023-08-31T11:53:22.904Z,34.14
2023-08-31T11:54:22.900Z,34.23
2023-08-31T11:55:22.902Z,34.14
2023-08-31T11:56:22.898Z,34.14
2023-08-31T11:57:22.906Z,34.04
2023-08-31T11:58:22.899Z,34.04
2023-08-31T11:59:22.902Z,34.14
2023-08-31T12:00:22.928Z,34.14
2023-08-31T12:01:22.934Z,34.35
2023-08-31T12:02:23.016Z,34.25
2023-08-31T12:03:29.761Z,33.76
2023-08-31T12:04:22.939Z,33.96
2023-08-31T12:05:22.899Z,33.57
2023-08-31T12:06:22.910Z,33.20
2023-08-31T12:07:22.928Z,33.29
2023-08-31T12:08:22.909Z,33.11
2023-08-31T12:09:22.909Z,33.11
2023-08-31T12:10:22.911Z,33.11
2023-08-31T12:11:22.913Z,32.64
2023-08-31T12:12:22.913Z,32.44
2023-08-31T12:13:22.910Z,32.54
2023-08-31T12:14:22.979Z,32.44
2023-08-31T12:15:22.915Z,32.44
2023-08-31T12:16:22.966Z,32.44
2023-08-31T12:17:22.929Z,32.05
2023-08-31T12:18:22.952Z,32.34
2023-08-31T12:19:22.920Z,32.07
2023-08-31T12:20:22.932Z,32.17
2023-08-31T12:21:22.943Z,31.87
2023-08-31T12:22:22.947Z,31.68
2023-08-31T12:23:22.969Z,31.38
2023-08-31T12:24:22.938Z,31.48
2023-08-31T12:25:22.934Z,31.48
2023-08-31T12:26:22.948Z,31.29
2023-08-31T12:27:22.935Z,31.30
2023-08-31T12:28:22.973Z,31.38
2023-08-31T12:29:22.941Z,31.48
2023-08-31T12:30:22.955Z,31.30
2023-08-31T12:31:22.972Z,31.19
2023-08-31T12:32:22.956Z,31.11
2023-08-31T12:33:22.989Z,31.21
2023-08-31T12:34:23.007Z,31.11
2023-08-31T12:35:22.959Z,30.82
2023-08-31T12:36:22.965Z,30.82
2023-08-31T12:37:22.960Z,30.91
2023-08-31T12:38:22.971Z,31.01
2023-08-31T12:39:22.965Z,31.11
2023-08-31T12:40:22.977Z,30.72
2023-08-31T12:41:24.985Z,30.43
2023-08-31T12:42:24.155Z,30.72
2023-08-31T12:43:23.025Z,30.52
2023-08-31T12:44:22.985Z,30.52
2023-08-31T12:45:23.042Z,30.33
2023-08-31T12:46:22.992Z,30.33
2023-08-31T12:47:23.006Z,30.33
2023-08-31T12:48:23.000Z,30.43
2023-08-31T12:49:23.047Z,30.43
2023-08-31T12:50:23.031Z,30.14
2023-08-31T12:51:22.996Z,30.33
2023-08-31T12:52:23.011Z,29.94
2023-08-31T12:53:23.007Z,29.96